createdAt,value
2018-12-17T00:00:00.291Z,17.33
2018-12-17T00:02:27.764Z,17.13
2018-12-17T00:04:55.223Z,16.90
2018-12-17T00:07:22.693Z,17.70
2018-12-17T00:09:51.659Z,13.47
2018-12-17T00:12:19.143Z,15.10
2018-12-17T00:14:47.330Z,15.17
2018-12-17T00:17:14.797Z,14.60
2018-12-17T00:19:42.355Z,13.40
2018-12-17T00:22:09.825Z,14.57
2018-12-17T00:24:37.383Z,15.33
2018-12-17T00:27:04.843Z,14.63
2018-12-17T00:29:32.307Z,16.30
2018-12-17T00:31:59.981Z,16.93
2018-12-17T00:34:27.526Z,15.67
2018-12-17T00:36:55.093Z,18.33
2018-12-17T00:39:22.706Z,16.43
2018-12-17T00:41:50.178Z,19.27
2018-12-17T00:44:17.645Z,13.87
2018-12-17T00:46:45.108Z,17.30
2018-12-17T00:49:12.607Z,14.07
2018-12-17T00:51:40.065Z,16.73
2018-12-17T00:54:07.646Z,19.47
2018-12-17T00:56:35.100Z,15.93
2018-12-17T00:59:02.656Z,22.23
2018-12-17T01:01:30.220Z,16.13
2018-12-17T01:03:57.684Z,18.20
2018-12-17T01:06:25.244Z,18.80
2018-12-17T01:08:52.888Z,15.73
2018-12-17T01:11:20.380Z,23.90
2018-12-17T01:13:47.944Z,16.60
2018-12-17T01:16:15.433Z,20.20
2018-12-17T01:18:44.022Z,18.33
2018-12-17T01:21:12.252Z,17.77
2018-12-17T01:23:39.718Z,19.43
2018-12-17T01:26:07.207Z,21.67
2018-12-17T01:28:34.674Z,23.30
2018-12-17T01:31:02.209Z,18.43
2018-12-17T01:33:29.672Z,19.43
2018-12-17T01:35:57.239Z,22.27
2018-12-17T01:38:24.713Z,26.47
2018-12-17T01:40:52.170Z,19.30
2018-12-17T01:43:19.843Z,19.87
2018-12-17T01:45:47.299Z,24.97
2018-12-17T01:48:14.762Z,19.97
2018-12-17T01:50:42.318Z,22.37
2018-12-17T01:53:09.793Z,22.27
2018-12-17T01:55:37.300Z,19.33
2018-12-17T01:58:04.759Z,23.83
2018-12-17T02:00:32.245Z,23.03
2018-12-17T02:02:59.719Z,20.03
2018-12-17T02:05:27.281Z,22.83
2018-12-17T02:07:54.733Z,21.50
2018-12-17T02:10:22.218Z,17.07
2018-12-17T02:12:50.439Z,27.43
2018-12-17T02:15:17.967Z,18.43
2018-12-17T02:17:45.452Z,16.50
2018-12-17T02:20:13.673Z,19.47
2018-12-17T02:22:41.121Z,18.73
2018-12-17T02:25:08.577Z,21.20
2018-12-17T02:27:36.034Z,19.53
2018-12-17T02:30:04.702Z,18.13
2018-12-17T02:32:32.930Z,20.30
2018-12-17T02:35:00.412Z,18.50
2018-12-17T02:37:27.870Z,21.43
2018-12-17T02:39:55.438Z,20.00
2018-12-17T02:42:22.909Z,19.23
2018-12-17T02:44:50.455Z,22.50
2018-12-17T02:47:18.033Z,17.67
2018-12-17T02:49:46.267Z,21.50
2018-12-17T02:52:13.756Z,14.67
2018-12-17T02:54:41.235Z,19.77
2018-12-17T02:57:08.793Z,26.47
2018-12-17T02:59:36.260Z,23.40
2018-12-17T03:02:03.714Z,22.40
2018-12-17T03:04:31.210Z,21.50
2018-12-17T03:06:59.461Z,23.43
2018-12-17T03:09:27.104Z,19.27
2018-12-17T03:11:54.483Z,22.63
2018-12-17T03:14:22.060Z,21.33
2018-12-17T03:16:50.285Z,19.77
2018-12-17T03:19:17.757Z,20.30
2018-12-17T03:21:45.257Z,18.00
2018-12-17T03:24:12.737Z,19.03
2018-12-17T03:26:40.973Z,18.57
2018-12-17T03:29:08.453Z,22.57
2018-12-17T03:31:35.906Z,25.40
2018-12-17T03:34:04.278Z,20.93
2018-12-17T03:36:31.740Z,21.40
2018-12-17T03:38:59.202Z,15.20
2018-12-17T03:41:26.685Z,20.37
2018-12-17T03:43:54.142Z,16.80
2018-12-17T03:46:21.611Z,17.67
2018-12-17T03:48:49.170Z,20.77
2018-12-17T03:51:16.741Z,19.37
2018-12-17T03:53:44.208Z,18.63
2018-12-17T03:56:11.659Z,17.93
2018-12-17T03:58:39.127Z,16.70
2018-12-17T04:01:06.639Z,16.67
2018-12-17T04:03:34.152Z,17.17
2018-12-17T04:06:01.623Z,18.43
2018-12-17T04:08:29.113Z,18.97
2018-12-17T04:10:57.361Z,16.93
2018-12-17T04:13:24.822Z,17.37
2018-12-17T04:15:52.294Z,16.23
2018-12-17T04:18:20.536Z,15.77
2018-12-17T04:20:48.025Z,16.97
2018-12-17T04:23:15.490Z,20.03
2018-12-17T04:25:42.956Z,18.17
2018-12-17T04:28:10.426Z,21.02
2018-12-17T04:30:38.681Z,18.20
2018-12-17T04:33:06.144Z,19.50
2018-12-17T04:35:33.641Z,20.90
2018-12-17T04:38:01.870Z,20.13
2018-12-17T04:40:29.342Z,15.87
2018-12-17T04:42:56.917Z,21.17
2018-12-17T04:45:24.470Z,19.17
2018-12-17T04:47:51.941Z,15.13
2018-12-17T04:50:19.409Z,18.70
2018-12-17T04:52:46.878Z,19.90
2018-12-17T04:55:14.420Z,17.43
2018-12-17T04:57:41.888Z,15.07
2018-12-17T05:00:09.349Z,18.13
2018-12-17T05:02:36.805Z,18.07
2018-12-17T05:05:04.377Z,16.60
2018-12-17T05:07:31.869Z,15.37
2018-12-17T05:10:00.110Z,18.67
2018-12-17T05:12:27.571Z,16.43
2018-12-17T05:14:55.147Z,12.30
2018-12-17T05:17:22.609Z,14.27
2018-12-17T05:19:50.067Z,14.27
2018-12-17T05:22:19.030Z,12.30
2018-12-17T05:24:46.498Z,18.80
2018-12-17T05:27:13.976Z,13.00
2018-12-17T05:29:41.442Z,14.37
2018-12-17T05:32:08.905Z,16.57
2018-12-17T05:34:36.367Z,15.37
2018-12-17T05:37:04.617Z,15.73
2018-12-17T05:39:32.073Z,12.30
2018-12-17T05:41:59.573Z,13.63
2018-12-17T05:44:27.032Z,15.03
2018-12-17T05:46:54.489Z,11.70
2018-12-17T05:49:21.968Z,11.77
2018-12-17T05:51:49.525Z,11.30
2018-12-17T05:54:17.755Z,13.73
2018-12-17T05:56:45.225Z,11.47
2018-12-17T05:59:12.678Z,15.40
2018-12-17T06:01:40.128Z,12.27
2018-12-17T06:04:07.592Z,10.93
2018-12-17T06:06:35.880Z,11.30
2018-12-17T06:09:04.519Z,12.77
2018-12-17T06:11:31.982Z,11.30
2018-12-17T06:13:59.450Z,11.67
2018-12-17T06:16:26.916Z,12.60
2018-12-17T06:18:54.460Z,13.43
2018-12-17T06:21:21.910Z,11.57
2018-12-17T06:23:49.377Z,10.10
2018-12-17T06:26:16.847Z,13.40
2018-12-17T06:28:44.321Z,10.07
2018-12-17T06:31:11.780Z,14.10
2018-12-17T06:33:39.249Z,10.63
2018-12-17T06:36:06.799Z,11.17
2018-12-17T06:38:34.367Z,11.33
2018-12-17T06:41:01.947Z,14.70
2018-12-17T06:43:29.506Z,12.70
2018-12-17T06:45:56.965Z,11.37
2018-12-17T06:48:24.518Z,11.23
2018-12-17T06:50:52.081Z,15.47
2018-12-17T06:53:19.548Z,12.17
2018-12-17T06:55:47.773Z,12.87
2018-12-17T06:58:15.233Z,12.50
2018-12-17T07:00:42.722Z,11.37
2018-12-17T07:03:10.201Z,11.47
2018-12-17T07:05:37.669Z,13.00
2018-12-17T07:08:05.235Z,12.37
2018-12-17T07:10:32.785Z,14.40
2018-12-17T07:13:00.359Z,11.90
2018-12-17T07:15:27.823Z,14.87
2018-12-17T07:17:55.278Z,14.57
2018-12-17T07:20:22.739Z,15.50
2018-12-17T07:22:50.191Z,13.17
2018-12-17T07:25:17.686Z,15.30
2018-12-17T07:27:45.238Z,14.93
2018-12-17T07:30:12.806Z,13.93
2018-12-17T07:32:41.053Z,19.30
2018-12-17T07:35:08.528Z,15.50
2018-12-17T07:37:35.972Z,13.60
2018-12-17T07:40:04.722Z,13.53
2018-12-17T07:42:32.943Z,12.77
2018-12-17T07:45:00.402Z,11.70
2018-12-17T07:47:27.861Z,12.53
2018-12-17T07:49:55.316Z,15.87
2018-12-17T07:52:22.756Z,12.77
2018-12-17T07:54:51.006Z,15.17
2018-12-17T07:57:18.470Z,11.85
2018-12-17T07:59:46.257Z,13.63
2018-12-17T08:02:14.506Z,12.60
2018-12-17T08:04:41.988Z,12.23
2018-12-17T08:07:09.537Z,11.53
2018-12-17T08:09:36.981Z,14.03
2018-12-17T08:12:05.205Z,9.93
2018-12-17T08:14:33.435Z,13.43
2018-12-17T08:17:00.895Z,13.40
2018-12-17T08:19:29.079Z,13.20
2018-12-17T08:21:55.938Z,11.60
2018-12-17T08:24:23.503Z,11.23
2018-12-17T08:26:51.090Z,10.00
2018-12-17T08:29:18.553Z,10.13
2018-12-17T08:31:46.780Z,9.33
2018-12-17T08:34:14.242Z,9.23
2018-12-17T08:36:41.752Z,7.30
2018-12-17T08:39:09.214Z,7.57
2018-12-17T08:41:40.057Z,8.10
2018-12-17T08:44:08.288Z,7.33
2018-12-17T08:46:35.745Z,8.47
2018-12-17T08:49:03.650Z,8.43
2018-12-17T08:51:31.100Z,6.10
2018-12-17T08:53:58.579Z,8.13
2018-12-17T08:56:26.141Z,6.37
2018-12-17T08:58:53.703Z,7.47
2018-12-17T09:01:21.359Z,8.67
2018-12-17T09:03:49.495Z,11.30
2018-12-17T09:06:16.947Z,7.57
2018-12-17T09:08:45.168Z,8.30
2018-12-17T09:11:12.671Z,9.73
2018-12-17T09:13:40.892Z,11.67
2018-12-17T09:16:08.349Z,5.63
2018-12-17T09:18:35.834Z,12.50
2018-12-17T09:21:04.841Z,8.38
2018-12-17T09:23:32.313Z,7.17
2018-12-17T09:25:59.777Z,6.93
2018-12-17T09:28:27.234Z,7.70
2018-12-17T09:30:54.680Z,5.23
2018-12-17T09:33:22.145Z,6.80
2018-12-17T09:35:49.606Z,9.17
2018-12-17T09:38:17.078Z,6.70
2018-12-17T09:40:44.527Z,7.60
2018-12-17T09:43:11.994Z,11.77
2018-12-17T09:45:39.452Z,7.40
2018-12-17T09:48:07.029Z,5.37
2018-12-17T09:50:34.489Z,5.57
2018-12-17T09:53:01.948Z,5.10
2018-12-17T09:55:29.616Z,8.87
2018-12-17T09:57:57.085Z,4.20
2018-12-17T10:00:25.633Z,4.60
2018-12-17T10:02:52.904Z,7.20
2018-12-17T10:05:20.358Z,7.00
2018-12-17T10:07:47.807Z,8.77
2018-12-17T10:10:15.261Z,7.57
2018-12-17T10:12:42.708Z,4.30
2018-12-17T10:15:10.938Z,6.33
2018-12-17T10:17:38.406Z,8.93
2018-12-17T10:20:05.882Z,7.67
2018-12-17T10:22:33.350Z,6.10
2018-12-17T10:25:00.900Z,9.73
2018-12-17T10:27:28.358Z,7.27
2018-12-17T10:29:55.829Z,7.57
2018-12-17T10:32:23.302Z,9.17
2018-12-17T10:34:50.845Z,10.60
2018-12-17T10:37:18.311Z,5.13
2018-12-17T10:39:45.761Z,6.13
2018-12-17T10:42:13.347Z,10.23
2018-12-17T10:44:40.804Z,6.03
2018-12-17T10:47:08.385Z,4.27
2018-12-17T10:49:35.836Z,4.83
2018-12-17T10:52:04.296Z,5.90
2018-12-17T10:54:31.766Z,4.47
2018-12-17T10:56:59.340Z,8.43
2018-12-17T10:59:26.898Z,2.87
2018-12-17T11:01:54.360Z,8.50
2018-12-17T11:04:21.835Z,7.03
2018-12-17T11:06:49.302Z,3.67
2018-12-17T11:09:16.846Z,5.63
2018-12-17T11:11:44.299Z,3.53
2018-12-17T11:14:11.875Z,5.00
2018-12-17T11:16:39.424Z,5.57
2018-12-17T11:19:06.868Z,7.90
2018-12-17T11:21:34.331Z,7.57
2018-12-17T11:24:01.784Z,3.57
2018-12-17T11:26:29.223Z,4.17
2018-12-17T11:28:56.689Z,4.30
2018-12-17T11:31:24.145Z,9.03
2018-12-17T11:33:52.370Z,2.70
2018-12-17T11:36:19.849Z,3.97
2018-12-17T11:38:47.417Z,4.17
2018-12-17T11:41:14.885Z,5.47
2018-12-17T11:43:43.929Z,4.07
2018-12-17T11:46:10.718Z,3.20
2018-12-17T11:48:38.174Z,7.10
2018-12-17T11:51:05.629Z,4.97
2018-12-17T11:53:33.216Z,4.03
2018-12-17T11:56:00.679Z,3.77
2018-12-17T11:58:28.439Z,4.77
2018-12-17T12:00:57.411Z,6.20
2018-12-17T12:03:24.900Z,3.50
2018-12-17T12:05:53.848Z,8.03
2018-12-17T12:08:21.310Z,4.53
2018-12-17T12:10:48.762Z,5.33
2018-12-17T12:13:16.286Z,8.13
2018-12-17T12:15:43.750Z,1.97
2018-12-17T12:18:11.235Z,4.07
2018-12-17T12:20:39.483Z,4.13
2018-12-17T12:23:06.937Z,7.33
2018-12-17T12:25:34.395Z,4.80
2018-12-17T12:28:01.861Z,12.17
2018-12-17T12:30:29.318Z,2.93
2018-12-17T12:32:56.772Z,3.70
2018-12-17T12:35:24.225Z,5.80
2018-12-17T12:37:51.692Z,3.07
2018-12-17T12:40:19.163Z,5.10
2018-12-17T12:42:51.561Z,8.47
2018-12-17T12:45:14.203Z,2.87
2018-12-17T12:47:41.665Z,3.33
2018-12-17T12:50:09.126Z,7.03
2018-12-17T12:52:36.684Z,6.90
2018-12-17T12:55:04.302Z,5.40
2018-12-17T12:57:31.741Z,4.33
2018-12-17T12:59:59.960Z,5.47
2018-12-17T13:02:27.426Z,6.10
2018-12-17T13:04:54.880Z,5.27
2018-12-17T13:07:22.383Z,5.43
2018-12-17T13:09:49.929Z,4.87
2018-12-17T13:12:17.511Z,5.47
2018-12-17T13:14:45.735Z,5.13
2018-12-17T13:17:18.796Z,3.63
2018-12-17T13:19:47.023Z,6.57
2018-12-17T13:22:14.518Z,4.27
2018-12-17T13:24:41.990Z,8.03
2018-12-17T13:27:09.444Z,7.37
2018-12-17T13:29:36.936Z,7.03
2018-12-17T13:32:05.151Z,7.13
2018-12-17T13:34:32.631Z,6.40
2018-12-17T13:37:01.190Z,3.07
2018-12-17T13:39:29.290Z,8.17
2018-12-17T13:41:56.750Z,6.63
2018-12-17T13:44:24.215Z,3.17
2018-12-17T13:46:51.853Z,2.77
2018-12-17T13:49:19.313Z,5.43
2018-12-17T13:51:52.494Z,2.97
2018-12-17T13:54:20.826Z,5.33
2018-12-17T13:56:48.280Z,5.33
2018-12-17T13:59:15.843Z,5.23
2018-12-17T14:01:43.309Z,3.87
2018-12-17T14:04:10.761Z,9.73
2018-12-17T14:06:38.229Z,4.80
2018-12-17T14:09:05.694Z,5.27
2018-12-17T14:11:33.161Z,3.83
2018-12-17T14:14:00.621Z,9.57
2018-12-17T14:16:33.753Z,8.63
2018-12-17T14:19:07.711Z,5.33
2018-12-17T14:21:40.882Z,8.27
2018-12-17T14:24:08.346Z,7.37
2018-12-17T14:26:35.797Z,8.67
2018-12-17T14:29:03.712Z,6.97
2018-12-17T14:31:31.279Z,13.77
2018-12-17T14:33:58.743Z,6.73
2018-12-17T14:36:27.694Z,6.83
2018-12-17T14:38:55.150Z,7.80
2018-12-17T14:41:22.606Z,3.80
2018-12-17T14:43:50.073Z,4.37
2018-12-17T14:46:17.635Z,5.17
2018-12-17T14:48:45.073Z,8.67
2018-12-17T14:51:13.325Z,7.97
2018-12-17T14:53:40.784Z,9.27
2018-12-17T14:56:08.340Z,5.20
2018-12-17T14:58:35.797Z,16.00
2018-12-17T15:01:04.811Z,5.73
2018-12-17T15:03:32.380Z,7.40
2018-12-17T15:05:59.850Z,2.67
2018-12-17T15:08:27.317Z,3.77
2018-12-17T15:10:54.783Z,5.87
2018-12-17T15:13:23.001Z,5.00
2018-12-17T15:15:50.488Z,9.47
2018-12-17T15:18:17.943Z,2.93
2018-12-17T15:20:45.411Z,7.43
2018-12-17T15:23:12.897Z,6.97
2018-12-17T15:25:40.361Z,3.53
2018-12-17T15:28:08.041Z,3.50
2018-12-17T15:30:35.488Z,7.73
2018-12-17T15:33:05.365Z,6.93
2018-12-17T15:35:32.847Z,2.63
2018-12-17T15:38:00.306Z,5.27
2018-12-17T15:40:27.885Z,2.90
2018-12-17T15:42:55.448Z,9.47
2018-12-17T15:45:23.006Z,3.73
2018-12-17T15:47:50.479Z,7.45
2018-12-17T15:50:18.757Z,6.47
2018-12-17T15:52:46.220Z,7.17
2018-12-17T15:55:13.677Z,4.20
2018-12-17T15:57:41.136Z,2.53
2018-12-17T16:00:08.698Z,3.17
2018-12-17T16:02:36.313Z,2.97
2018-12-17T16:05:03.763Z,5.63
2018-12-17T16:07:32.011Z,3.00
2018-12-17T16:09:59.474Z,7.80
2018-12-17T16:12:26.929Z,3.17
2018-12-17T16:14:54.505Z,6.17
2018-12-17T16:17:21.983Z,4.77
2018-12-17T16:19:50.253Z,5.33
2018-12-17T16:22:18.477Z,3.13
2018-12-17T16:24:45.974Z,8.00
2018-12-17T16:27:19.188Z,8.10
2018-12-17T16:29:41.033Z,5.53
2018-12-17T16:32:09.274Z,8.27
2018-12-17T16:34:36.730Z,4.13
2018-12-17T16:37:04.207Z,7.17
2018-12-17T16:39:31.672Z,4.07
2018-12-17T16:41:59.153Z,3.03
2018-12-17T16:44:27.416Z,5.53
2018-12-17T16:46:56.379Z,7.27
2018-12-17T16:49:23.844Z,6.53
2018-12-17T16:51:51.345Z,3.80
2018-12-17T16:54:18.899Z,2.90
2018-12-17T16:56:46.458Z,4.57
2018-12-17T16:59:13.924Z,5.33
2018-12-17T17:01:41.490Z,5.50
2018-12-17T17:04:09.049Z,3.30
2018-12-17T17:06:37.057Z,10.17
2018-12-17T17:09:05.405Z,5.03
2018-12-17T17:11:32.866Z,6.93
2018-12-17T17:14:00.327Z,5.23
2018-12-17T17:16:27.790Z,9.27
2018-12-17T17:18:55.259Z,7.67
2018-12-17T17:21:22.714Z,2.53
2018-12-17T17:23:50.299Z,6.63
2018-12-17T17:26:17.757Z,10.30
2018-12-17T17:28:46.327Z,5.53
2018-12-17T17:31:13.907Z,9.17
2018-12-17T17:33:41.353Z,4.60
2018-12-17T17:36:08.845Z,5.60
2018-12-17T17:38:36.290Z,3.10
2018-12-17T17:41:04.522Z,5.90
2018-12-17T17:43:31.988Z,5.37
2018-12-17T17:45:59.493Z,13.03
2018-12-17T17:48:27.048Z,5.33
2018-12-17T17:50:54.532Z,9.33
2018-12-17T17:53:22.747Z,13.30
2018-12-17T17:55:50.198Z,2.70
2018-12-17T17:58:17.671Z,3.37
2018-12-17T18:00:45.165Z,4.33
2018-12-17T18:03:12.624Z,3.33
2018-12-17T18:05:40.098Z,2.87
2018-12-17T18:08:07.673Z,8.73
2018-12-17T18:10:35.337Z,16.27
2018-12-17T18:13:03.722Z,9.40
2018-12-17T18:15:31.188Z,5.50
2018-12-17T18:17:58.744Z,10.00
2018-12-17T18:20:26.205Z,6.77
2018-12-17T18:22:53.774Z,6.30
2018-12-17T18:25:21.243Z,5.37
2018-12-17T18:27:48.688Z,6.23
2018-12-17T18:30:16.163Z,8.47
2018-12-17T18:32:43.718Z,9.77
2018-12-17T18:35:11.266Z,7.47
2018-12-17T18:37:38.882Z,8.77
2018-12-17T18:40:07.081Z,6.53
2018-12-17T18:42:34.539Z,8.70
2018-12-17T18:45:01.998Z,8.30
2018-12-17T18:47:29.480Z,9.00
2018-12-17T18:49:56.993Z,8.17
2018-12-17T18:52:25.048Z,9.30
2018-12-17T18:54:52.518Z,5.73
2018-12-17T18:57:19.981Z,6.73
2018-12-17T18:59:47.441Z,8.80
2018-12-17T19:02:15.005Z,5.97
2018-12-17T19:04:42.449Z,6.10
2018-12-17T19:07:09.896Z,5.80
2018-12-17T19:09:37.436Z,10.13
2018-12-17T19:12:04.877Z,6.97
2018-12-17T19:14:33.115Z,10.87
2018-12-17T19:17:00.797Z,5.60
2018-12-17T19:19:28.356Z,4.77
2018-12-17T19:21:55.807Z,5.03
2018-12-17T19:24:23.265Z,5.60
2018-12-17T19:26:50.714Z,7.00
2018-12-17T19:29:18.177Z,9.68
2018-12-17T19:31:45.684Z,8.90
2018-12-17T19:34:13.929Z,12.30
2018-12-17T19:36:41.401Z,4.60
2018-12-17T19:39:08.881Z,6.47
2018-12-17T19:41:37.193Z,10.17
2018-12-17T19:44:04.639Z,7.27
2018-12-17T19:46:32.133Z,9.30
2018-12-17T19:48:59.676Z,7.93
2018-12-17T19:51:27.105Z,8.17
2018-12-17T19:53:55.406Z,7.97
2018-12-17T19:56:22.920Z,8.63
2018-12-17T19:58:50.382Z,4.53
2018-12-17T20:01:17.819Z,9.93
2018-12-17T20:03:45.290Z,8.60
2018-12-17T20:06:12.748Z,10.80
2018-12-17T20:08:40.200Z,7.87
2018-12-17T20:11:07.650Z,6.63
2018-12-17T20:13:35.894Z,7.67
2018-12-17T20:16:04.562Z,8.52
2018-12-17T20:18:32.021Z,6.00
2018-12-17T20:20:59.471Z,6.50
2018-12-17T20:23:26.926Z,3.47
2018-12-17T20:25:54.393Z,4.73
2018-12-17T20:28:21.828Z,6.27
2018-12-17T20:30:49.292Z,6.03
2018-12-17T20:33:16.737Z,5.50
2018-12-17T20:35:44.951Z,6.83
2018-12-17T20:38:14.199Z,5.93
2018-12-17T20:40:42.500Z,4.23
2018-12-17T20:43:10.047Z,7.30
2018-12-17T20:45:37.490Z,6.20
2018-12-17T20:48:04.948Z,5.93
2018-12-17T20:50:32.388Z,3.87
2018-12-17T20:52:59.851Z,3.70
2018-12-17T20:55:30.607Z,2.53
2018-12-17T20:57:54.759Z,5.40
2018-12-17T21:00:22.985Z,4.40
2018-12-17T21:02:50.412Z,7.00
2018-12-17T21:05:17.857Z,5.30
2018-12-17T21:07:46.073Z,7.97
2018-12-17T21:10:13.519Z,6.60
2018-12-17T21:12:40.989Z,10.30
2018-12-17T21:15:08.444Z,7.13
2018-12-17T21:17:35.898Z,5.33
2018-12-17T21:20:03.993Z,10.95
2018-12-17T21:22:31.450Z,6.75
2018-12-17T21:24:58.918Z,5.93
2018-12-17T21:27:27.159Z,9.43
2018-12-17T21:29:55.382Z,9.87
2018-12-17T21:32:22.858Z,4.87
2018-12-17T21:34:50.299Z,4.57
2018-12-17T21:37:17.750Z,5.37
2018-12-17T21:39:45.196Z,2.70
2018-12-17T21:42:13.403Z,4.60
2018-12-17T21:44:40.857Z,4.83
2018-12-17T21:47:08.309Z,6.70
2018-12-17T21:49:35.751Z,7.63
2018-12-17T21:52:04.702Z,7.75
2018-12-17T21:54:32.155Z,8.37
2018-12-17T21:56:59.640Z,9.20
2018-12-17T21:59:27.099Z,8.33
2018-12-17T22:01:54.543Z,7.57
2018-12-17T22:04:22.003Z,9.20
2018-12-17T22:06:49.470Z,9.47
2018-12-17T22:09:16.922Z,5.73
2018-12-17T22:11:44.372Z,5.27
2018-12-17T22:14:11.831Z,8.63
2018-12-17T22:16:40.035Z,12.03
2018-12-17T22:19:07.480Z,7.57
2018-12-17T22:21:34.923Z,4.90
2018-12-17T22:24:02.377Z,6.80
2018-12-17T22:26:29.812Z,10.03
2018-12-17T22:28:57.266Z,9.87
2018-12-17T22:31:24.725Z,7.95
2018-12-17T22:33:52.173Z,7.27
2018-12-17T22:36:19.629Z,9.63
2018-12-17T22:38:47.074Z,12.73
2018-12-17T22:41:14.556Z,8.33
2018-12-17T22:43:42.029Z,8.10
2018-12-17T22:46:09.473Z,5.50
2018-12-17T22:48:36.932Z,6.67
2018-12-17T22:51:04.387Z,12.70
2018-12-17T22:53:31.826Z,5.67
2018-12-17T22:55:59.294Z,8.67
2018-12-17T22:58:26.759Z,11.93
2018-12-17T23:00:54.989Z,9.33
2018-12-17T23:03:26.307Z,11.00
2018-12-17T23:05:50.664Z,7.33
2018-12-17T23:08:18.097Z,12.37
2018-12-17T23:10:57.333Z,6.90
2018-12-17T23:13:36.532Z,8.93
2018-12-17T23:16:15.762Z,7.90
2018-12-17T23:18:42.724Z,7.57
2018-12-17T23:21:10.179Z,8.20
2018-12-17T23:23:37.636Z,6.80
2018-12-17T23:26:05.096Z,10.20
2018-12-17T23:28:32.563Z,10.67
2018-12-17T23:31:00.068Z,10.60
2018-12-17T23:33:32.828Z,10.93
2018-12-17T23:35:54.964Z,9.03
2018-12-17T23:38:22.392Z,9.20
2018-12-17T23:40:50.610Z,10.43
2018-12-17T23:43:18.081Z,7.90
2018-12-17T23:45:45.550Z,10.03
2018-12-17T23:48:13.430Z,10.83
2018-12-17T23:50:40.900Z,10.03
2018-12-17T23:53:08.342Z,9.33
2018-12-17T23:55:35.814Z,5.90
2018-12-17T23:58:04.586Z,14.87
